Time;durP1;ratioP1;P1;durP2;ratioP2;P2;SDS_P1;SDS_P2;PMS_P1;PMS_P2;Temp;Humidity;BMP_temperature;BMP_pressure;BME280_temperature;BME280_humidity;BME280_pressure;Samples;Min_cycle;Max_cycle;Signal;HPM_P1;HPM_P2
2021/07/31 00:02:04;;;;;;;7.03;1.88;;;16.30;92.80;;;;;;5078764;28;20607;-66
2021/07/31 00:04:29;;;;;;;9.52;2.22;;;16.30;92.90;;;;;;5076143;28;20070;-66
2021/07/31 00:06:55;;;;;;;7.47;1.63;;;16.30;93.00;;;;;;5058781;28;20021;-66
2021/07/31 00:09:20;;;;;;;6.28;2.00;;;16.30;93.10;;;;;;5075403;28;20052;-67
2021/07/31 00:11:46;;;;;;;5.30;1.90;;;16.30;93.20;;;;;;5075433;28;20091;-66
2021/07/31 00:14:12;;;;;;;4.28;1.58;;;16.30;93.30;;;;;;5078414;28;20024;-66
2021/07/31 00:16:38;;;;;;;3.53;1.48;;;16.30;93.30;;;;;;5076432;28;20059;-67
2021/07/31 00:19:03;;;;;;;7.47;2.47;;;16.30;93.30;;;;;;5060828;28;20507;-66
2021/07/31 00:21:29;;;;;;;5.32;1.80;;;16.30;93.40;;;;;;5057910;28;20111;-67
2021/07/31 00:23:54;;;;;;;5.70;1.95;;;16.30;93.40;;;;;;5074275;28;20028;-67
2021/07/31 00:26:20;;;;;;;4.55;1.80;;;16.40;93.50;;;;;;5076287;28;20059;-66
2021/07/31 00:28:46;;;;;;;12.13;2.05;;;16.40;93.50;;;;;;5078947;28;20107;-66
2021/07/31 00:31:12;;;;;;;5.20;1.85;;;16.40;93.60;;;;;;5077154;28;20154;-67
2021/07/31 00:33:38;;;;;;;7.68;1.92;;;16.40;93.60;;;;;;5076784;28;20020;-66
2021/07/31 00:36:03;;;;;;;7.88;2.33;;;16.40;93.60;;;;;;5077916;28;20023;-66
2021/07/31 00:38:29;;;;;;;5.47;1.70;;;16.40;93.70;;;;;;5074606;28;20485;-66
2021/07/31 00:40:54;;;;;;;9.38;1.85;;;16.40;93.70;;;;;;5073948;28;20025;-66
2021/07/31 00:43:20;;;;;;;7.53;1.73;;;16.40;93.80;;;;;;5075781;28;20496;-67
2021/07/31 00:45:45;;;;;;;6.15;2.08;;;16.40;93.80;;;;;;5075780;28;20036;-66
2021/07/31 00:48:11;;;;;;;6.90;1.90;;;16.40;93.90;;;;;;5058616;28;20070;-66
2021/07/31 00:50:37;;;;;;;6.85;2.15;;;16.40;94.00;;;;;;5075022;28;20032;-66
2021/07/31 00:53:02;;;;;;;8.27;1.63;;;16.40;94.00;;;;;;5074669;28;20042;-66
2021/07/31 00:55:29;;;;;;;7.40;2.38;;;16.40;94.00;;;;;;5074176;28;20021;-66
2021/07/31 00:57:57;;;;;;;5.70;2.15;;;16.40;94.00;;;;;;5055699;28;20055;-67
2021/07/31 01:00:23;;;;;;;4.82;2.05;;;16.50;94.30;;;;;;5075658;28;20031;-67
2021/07/31 01:02:48;;;;;;;7.65;2.55;;;16.50;94.10;;;;;;5074958;28;20020;-66
2021/07/31 01:05:14;;;;;;;5.78;2.35;;;16.50;94.20;;;;;;5058856;28;20024;-66
2021/07/31 01:07:40;;;;;;;10.23;3.10;;;16.50;94.10;;;;;;5074614;28;20600;-67
2021/07/31 01:10:06;;;;;;;6.88;2.40;;;16.50;94.10;;;;;;5056873;28;20031;-67
2021/07/31 01:12:33;;;;;;;7.85;2.33;;;16.50;94.20;;;;;;5073861;28;20020;-66
2021/07/31 01:14:59;;;;;;;6.80;2.50;;;16.50;94.20;;;;;;5071968;28;20021;-66
2021/07/31 01:17:25;;;;;;;7.05;2.17;;;16.50;94.30;;;;;;5075184;28;20042;-66
2021/07/31 01:19:50;;;;;;;6.68;2.58;;;16.50;94.60;;;;;;5075047;28;20059;-66
2021/07/31 01:22:16;;;;;;;9.32;3.05;;;16.50;94.40;;;;;;5074795;28;20035;-66
2021/07/31 01:24:41;;;;;;;8.07;2.95;;;16.50;94.70;;;;;;5072743;28;20035;-66
2021/07/31 01:27:07;;;;;;;8.02;2.75;;;16.50;94.40;;;;;;5075356;28;20565;-66
2021/07/31 01:29:33;;;;;;;8.10;3.45;;;16.50;94.40;;;;;;5076858;28;20081;-66
2021/07/31 01:31:58;;;;;;;9.60;2.85;;;16.50;94.40;;;;;;5077621;28;20121;-66
2021/07/31 01:34:24;;;;;;;7.28;2.65;;;16.50;94.50;;;;;;5074380;28;20392;-66
2021/07/31 01:36:49;;;;;;;6.03;2.58;;;16.50;94.60;;;;;;5074036;28;20428;-67
2021/07/31 01:39:15;;;;;;;10.60;3.38;;;16.50;94.60;;;;;;5073326;28;20033;-66
2021/07/31 01:41:41;;;;;;;6.47;2.80;;;16.50;94.60;;;;;;5072694;28;20035;-66
2021/07/31 01:44:07;;;;;;;7.75;2.60;;;16.50;94.60;;;;;;5074977;28;20032;-66
2021/07/31 01:46:32;;;;;;;7.85;3.30;;;16.50;94.70;;;;;;5076442;28;20059;-66
2021/07/31 01:48:58;;;;;;;8.40;3.15;;;16.50;94.70;;;;;;5073713;28;20113;-66
2021/07/31 01:51:23;;;;;;;9.75;2.55;;;16.50;94.70;;;;;;5074480;28;20096;-66
2021/07/31 01:53:49;;;;;;;7.68;2.72;;;16.50;94.60;;;;;;5073561;28;20382;-66
2021/07/31 01:56:14;;;;;;;12.48;4.07;;;16.40;94.60;;;;;;5055274;28;20151;-66
2021/07/31 01:58:40;;;;;;;13.82;3.20;;;16.50;94.60;;;;;;5072654;28;20025;-66
2021/07/31 02:01:05;;;;;;;8.30;2.88;;;16.50;94.50;;;;;;5074820;28;20541;-66
2021/07/31 02:03:31;;;;;;;9.55;3.15;;;16.50;94.50;;;;;;5075959;28;20024;-66
2021/07/31 02:05:57;;;;;;;8.60;2.72;;;16.50;94.50;;;;;;5073854;28;20031;-66
2021/07/31 02:08:23;;;;;;;11.68;3.50;;;16.50;94.50;;;;;;5055869;28;20047;-65
2021/07/31 02:10:50;;;;;;;9.85;3.47;;;16.50;94.40;;;;;;5073055;28;20056;-66
2021/07/31 02:13:15;;;;;;;8.10;3.20;;;16.50;94.40;;;;;;5072631;28;20027;-66
2021/07/31 02:15:41;;;;;;;6.60;3.53;;;16.50;94.40;;;;;;5072189;28;20099;-66
2021/07/31 02:18:08;;;;;;;8.63;3.25;;;16.50;94.40;;;;;;5073907;28;20052;-66
2021/07/31 02:20:33;;;;;;;7.38;3.75;;;16.50;94.40;;;;;;5070298;28;20031;-66
2021/07/31 02:22:59;;;;;;;9.15;3.08;;;16.50;94.30;;;;;;5072137;28;20025;-66
2021/07/31 02:25:24;;;;;;;7.07;2.92;;;16.50;94.30;;;;;;5072042;28;20024;-66
2021/07/31 02:27:50;;;;;;;6.32;2.63;;;16.60;94.30;;;;;;5076436;28;20027;-66
2021/07/31 02:30:16;;;;;;;9.52;3.60;;;16.60;94.30;;;;;;5073740;28;20469;-66
2021/07/31 02:32:42;;;;;;;9.40;3.70;;;16.60;94.30;;;;;;5074131;28;20024;-66
2021/07/31 02:35:10;;;;;;;8.18;3.50;;;16.60;94.30;;;;;;5073245;28;20474;-66
2021/07/31 02:37:35;;;;;;;6.55;2.80;;;16.60;94.30;;;;;;5072568;28;20016;-66
2021/07/31 02:40:01;;;;;;;9.43;3.30;;;16.60;94.30;;;;;;5072560;28;20085;-66
2021/07/31 02:42:26;;;;;;;7.60;2.60;;;16.60;94.30;;;;;;5071864;28;20555;-66
2021/07/31 02:44:52;;;;;;;10.30;3.70;;;16.60;94.30;;;;;;5075978;28;20529;-66
2021/07/31 02:47:17;;;;;;;6.32;2.83;;;16.60;94.20;;;;;;5073666;28;20074;-66
2021/07/31 02:49:43;;;;;;;8.65;3.40;;;16.50;94.30;;;;;;5073774;28;20040;-66
2021/07/31 02:52:09;;;;;;;7.20;3.40;;;16.50;94.30;;;;;;5070526;28;20393;-66
2021/07/31 02:54:34;;;;;;;8.23;4.13;;;16.50;94.40;;;;;;5077194;28;20021;-66
2021/07/31 02:57:00;;;;;;;5.13;2.65;;;16.50;94.50;;;;;;5073425;28;20053;-66
2021/07/31 02:59:25;;;;;;;7.82;3.38;;;16.50;94.50;;;;;;5071424;28;20060;-66
2021/07/31 03:01:51;;;;;;;8.98;3.60;;;16.50;94.50;;;;;;5070822;28;20032;-66
2021/07/31 03:04:16;;;;;;;9.18;3.92;;;16.50;94.60;;;;;;5073812;28;20039;-66
2021/07/31 03:06:42;;;;;;;11.73;4.22;;;16.50;94.50;;;;;;5074302;28;20086;-66
2021/07/31 03:09:07;;;;;;;9.10;4.07;;;16.50;94.60;;;;;;5072579;28;20027;-66
2021/07/31 03:11:33;;;;;;;9.43;4.18;;;16.50;94.70;;;;;;5075145;28;20032;-66
2021/07/31 03:13:58;;;;;;;10.23;4.10;;;16.50;94.80;;;;;;5072023;28;20535;-66
2021/07/31 03:16:24;;;;;;;7.10;3.80;;;16.50;94.90;;;;;;5071434;28;20416;-66
2021/07/31 03:18:49;;;;;;;8.15;4.10;;;16.40;95.20;;;;;;5073693;28;20024;-66
2021/07/31 03:21:15;;;;;;;8.63;4.10;;;16.40;95.40;;;;;;5073709;28;20021;-66
2021/07/31 03:23:40;;;;;;;8.48;4.35;;;16.30;95.70;;;;;;5074511;28;20508;-66
2021/07/31 03:26:06;;;;;;;9.27;4.35;;;16.30;95.80;;;;;;5072588;28;20024;-66
2021/07/31 03:28:31;;;;;;;11.60;4.55;;;16.30;96.00;;;;;;5055472;28;20067;-66
2021/07/31 03:30:57;;;;;;;10.32;3.97;;;16.20;96.20;;;;;;5075233;28;20056;-67
2021/07/31 03:33:23;;;;;;;7.88;4.10;;;16.10;96.60;;;;;;5072901;28;20496;-67
2021/07/31 03:35:52;;;;;;;8.68;4.60;;;16.00;97.30;;;;;;5055607;28;20029;-67
2021/07/31 03:38:18;;;;;;;9.02;4.80;;;15.90;97.60;;;;;;5072190;28;20486;-67
2021/07/31 03:40:43;;;;;;;6.97;4.85;;;15.80;98.00;;;;;;5072050;28;20031;-67
2021/07/31 03:43:09;;;;;;;9.07;5.00;;;15.70;98.30;;;;;;5070846;28;20032;-67
2021/07/31 03:45:35;;;;;;;10.65;6.00;;;15.60;98.60;;;;;;5074085;28;20056;-67
2021/07/31 03:48:00;;;;;;;8.70;5.50;;;15.60;98.90;;;;;;5058953;28;20024;-66
2021/07/31 03:50:26;;;;;;;9.70;6.03;;;15.60;99.20;;;;;;5076161;28;20040;-67
2021/07/31 03:52:51;;;;;;;12.10;5.65;;;15.60;99.40;;;;;;5078141;28;20048;-66
2021/07/31 03:55:17;;;;;;;10.55;5.63;;;15.60;99.60;;;;;;5075515;28;20095;-67
2021/07/31 03:57:42;;;;;;;8.18;5.32;;;15.50;99.70;;;;;;5075493;28;20055;-66
2021/07/31 04:00:08;;;;;;;7.93;6.22;;;15.50;99.80;;;;;;5074829;28;20028;-66
2021/07/31 04:02:34;;;;;;;8.95;5.30;;;15.50;99.90;;;;;;5059044;28;20056;-67
2021/07/31 04:05:00;;;;;;;7.55;5.45;;;15.50;99.90;;;;;;5078185;28;20075;-66
2021/07/31 04:07:25;;;;;;;7.00;5.57;;;15.50;99.90;;;;;;5076156;28;20481;-67
2021/07/31 04:09:51;;;;;;;7.15;5.07;;;15.50;99.90;;;;;;5076729;28;20031;-66
2021/07/31 04:12:17;;;;;;;7.72;5.50;;;15.60;99.90;;;;;;5073130;28;20022;-67
2021/07/31 04:14:43;;;;;;;10.27;6.35;;;15.60;99.90;;;;;;5075162;28;20390;-66
2021/07/31 04:17:11;;;;;;;11.93;6.60;;;15.60;99.90;;;;;;5074206;28;20048;-66
2021/07/31 04:19:37;;;;;;;7.40;5.78;;;15.60;99.90;;;;;;5064177;28;20470;-67
2021/07/31 04:22:03;;;;;;;6.80;5.93;;;15.60;99.90;;;;;;5076532;28;20033;-67
2021/07/31 04:24:28;;;;;;;7.82;5.47;;;15.60;99.90;;;;;;5075409;28;20035;-66
2021/07/31 04:26:54;;;;;;;7.82;5.28;;;15.50;99.90;;;;;;5075755;28;20115;-66
2021/07/31 04:29:20;;;;;;;7.88;5.70;;;15.50;99.90;;;;;;5060154;28;20025;-66
2021/07/31 04:31:46;;;;;;;8.48;5.72;;;15.50;99.90;;;;;;5076084;28;20023;-66
2021/07/31 04:34:12;;;;;;;9.32;5.47;;;15.40;99.90;;;;;;5076907;28;20378;-66
2021/07/31 04:36:37;;;;;;;7.32;5.35;;;15.50;99.90;;;;;;5075061;28;20023;-66
2021/07/31 04:39:04;;;;;;;7.38;5.00;;;15.40;99.90;;;;;;5075390;28;20717;-66
2021/07/31 04:41:30;;;;;;;6.97;5.05;;;15.40;99.90;;;;;;5056270;28;20029;-67
2021/07/31 04:43:56;;;;;;;5.03;4.18;;;15.40;99.90;;;;;;5074639;28;20107;-67
2021/07/31 04:46:22;;;;;;;6.10;3.63;;;15.40;99.90;;;;;;5077483;28;20537;-67
2021/07/31 04:48:48;;;;;;;6.93;4.10;;;15.40;99.90;;;;;;5075675;28;20402;-66
2021/07/31 04:51:14;;;;;;;4.95;3.13;;;15.40;99.90;;;;;;5076478;28;20036;-66
2021/07/31 04:53:40;;;;;;;5.03;2.88;;;15.40;99.90;;;;;;5075978;28;20024;-66
2021/07/31 04:56:06;;;;;;;4.63;3.20;;;15.40;99.90;;;;;;5074790;28;20020;-66
2021/07/31 04:58:31;;;;;;;3.70;2.60;;;15.40;99.90;;;;;;5073471;28;20020;-67
2021/07/31 05:01:00;;;;;;;4.13;3.28;;;15.40;99.90;;;;;;5071712;28;20069;-66
2021/07/31 05:03:27;;;;;;;5.70;3.25;;;15.40;99.90;;;;;;5076902;28;20021;-66
2021/07/31 05:05:52;;;;;;;5.63;3.55;;;15.40;99.90;;;;;;5057348;28;20016;-67
2021/07/31 05:08:18;;;;;;;5.75;3.50;;;15.40;99.90;;;;;;5076254;28;20373;-66
2021/07/31 05:10:46;;;;;;;4.13;3.00;;;15.40;99.90;;;;;;5074335;28;20451;-66
2021/07/31 05:13:12;;;;;;;4.53;3.85;;;15.30;99.90;;;;;;5074458;28;20016;-67
2021/07/31 05:15:39;;;;;;;4.13;3.78;;;15.40;99.90;;;;;;5073495;28;20052;-66
2021/07/31 05:18:06;;;;;;;5.55;4.47;;;15.40;99.90;;;;;;5057378;28;20429;-66
2021/07/31 05:20:33;;;;;;;6.07;4.53;;;15.40;99.90;;;;;;5085826;28;20028;-67
2021/07/31 05:22:59;;;;;;;7.13;5.43;;;15.50;99.90;;;;;;5073070;28;20037;-66
2021/07/31 05:25:24;;;;;;;7.93;5.80;;;15.50;99.90;;;;;;5072620;28;20119;-66
2021/07/31 05:27:50;;;;;;;8.32;6.38;;;15.60;99.90;;;;;;5094049;28;20036;-66
2021/07/31 05:30:15;;;;;;;6.47;5.65;;;15.60;99.90;;;;;;5094030;28;20040;-66
2021/07/31 05:32:41;;;;;;;7.68;5.70;;;15.60;99.90;;;;;;5093983;28;20024;-66
2021/07/31 05:35:07;;;;;;;12.45;6.38;;;15.60;99.90;;;;;;5093757;28;20065;-66
2021/07/31 05:37:33;;;;;;;10.65;6.53;;;15.60;99.90;;;;;;5093700;28;20048;-66
2021/07/31 05:39:59;;;;;;;7.95;5.85;;;15.60;99.90;;;;;;5093497;28;20053;-66
2021/07/31 05:42:26;;;;;;;9.35;6.18;;;15.60;99.90;;;;;;5074941;28;20095;-65
2021/07/31 05:44:57;;;;;;;7.82;6.43;;;15.50;99.90;;;;;;5093313;28;20020;-66
2021/07/31 05:47:27;;;;;;;10.88;6.30;;;15.50;99.90;;;;;;5093523;28;20073;-66
2021/07/31 05:49:56;;;;;;;8.65;6.05;;;15.50;99.90;;;;;;5093281;28;20371;-66
2021/07/31 05:52:25;;;;;;;8.98;5.40;;;15.60;99.90;;;;;;5092969;28;20028;-67
2021/07/31 05:54:57;;;;;;;10.07;5.93;;;15.60;99.90;;;;;;5093501;28;20046;-66
2021/07/31 05:57:23;;;;;;;6.72;5.05;;;15.60;99.90;;;;;;5093311;28;20035;-66
2021/07/31 05:59:49;;;;;;;13.35;6.18;;;15.60;99.90;;;;;;5093460;28;20074;-66
2021/07/31 06:02:15;;;;;;;7.05;5.43;;;15.70;99.90;;;;;;5093309;28;20060;-66
2021/07/31 06:04:41;;;;;;;12.13;5.65;;;15.70;99.90;;;;;;5093506;28;20028;-66
2021/07/31 06:07:08;;;;;;;7.15;5.50;;;15.60;99.90;;;;;;5082545;28;20024;-66
2021/07/31 06:09:34;;;;;;;7.97;5.47;;;15.70;99.90;;;;;;5093122;28;20085;-66
2021/07/31 06:12:00;;;;;;;8.73;4.85;;;15.70;99.90;;;;;;5092172;28;20012;-66
2021/07/31 06:14:26;;;;;;;7.72;5.38;;;15.70;99.90;;;;;;5093237;28;20024;-66
2021/07/31 06:16:52;;;;;;;10.43;6.07;;;15.80;99.90;;;;;;5074786;28;20038;-66
2021/07/31 06:19:17;;;;;;;9.00;5.82;;;15.80;99.90;;;;;;5092892;28;20032;-66
2021/07/31 06:21:43;;;;;;;10.15;5.72;;;15.90;99.90;;;;;;5074433;28;20028;-66
2021/07/31 06:24:08;;;;;;;9.20;5.50;;;16.00;99.90;;;;;;5074706;28;20035;-66
2021/07/31 06:26:37;;;;;;;9.18;5.70;;;16.00;99.90;;;;;;5093017;28;20072;-66
2021/07/31 06:29:03;;;;;;;7.78;4.63;;;16.10;99.90;;;;;;5092846;28;20024;-66
2021/07/31 06:31:29;;;;;;;6.88;4.30;;;16.10;99.90;;;;;;5074819;28;20028;-66
2021/07/31 06:33:57;;;;;;;5.82;5.03;;;16.20;99.90;;;;;;5092790;28;20065;-66
2021/07/31 06:36:22;;;;;;;7.80;5.63;;;16.20;99.90;;;;;;5074654;28;20655;-66
2021/07/31 06:38:48;;;;;;;5.75;5.15;;;16.30;99.90;;;;;;5074348;28;20147;-66
2021/07/31 06:41:13;;;;;;;8.55;5.65;;;16.40;99.90;;;;;;5071275;28;20020;-66
2021/07/31 06:43:39;;;;;;;10.45;6.40;;;16.40;99.90;;;;;;5064435;28;20481;-66
2021/07/31 06:46:15;;;;;;;8.80;7.00;;;16.40;99.90;;;;;;5092428;28;20024;-66
2021/07/31 06:48:41;;;;;;;9.45;6.85;;;16.50;99.90;;;;;;5092477;28;20043;-66
2021/07/31 06:51:07;;;;;;;9.88;7.25;;;16.50;99.90;;;;;;5059814;28;20017;-66
2021/07/31 06:53:33;;;;;;;10.90;7.85;;;16.50;99.90;;;;;;5075464;28;20104;-66
2021/07/31 06:56:02;;;;;;;9.07;7.63;;;16.50;99.90;;;;;;5086131;28;20103;-66
2021/07/31 06:58:28;;;;;;;12.07;8.40;;;16.50;99.90;;;;;;5092479;28;20024;-66
2021/07/31 07:00:54;;;;;;;11.00;7.78;;;16.40;99.90;;;;;;5092161;28;20036;-66
2021/07/31 07:03:21;;;;;;;12.75;8.45;;;16.50;99.90;;;;;;5091783;28;20107;-66
2021/07/31 07:05:47;;;;;;;12.50;8.82;;;16.60;99.90;;;;;;5092455;28;20122;-66
2021/07/31 07:08:12;;;;;;;9.63;8.63;;;16.60;99.90;;;;;;5091960;28;20117;-66
2021/07/31 07:10:38;;;;;;;13.02;8.90;;;16.70;99.90;;;;;;5092272;28;20489;-66
2021/07/31 07:13:03;;;;;;;11.43;9.18;;;16.70;99.90;;;;;;5092307;28;20376;-66
2021/07/31 07:15:29;;;;;;;11.38;8.85;;;16.70;99.90;;;;;;5092269;28;20097;-66
2021/07/31 07:17:58;;;;;;;9.35;7.57;;;16.60;99.90;;;;;;5092154;28;20073;-66
2021/07/31 07:20:24;;;;;;;8.95;6.80;;;16.60;99.90;;;;;;5092262;28;20028;-66
2021/07/31 07:22:50;;;;;;;6.90;6.20;;;16.60;99.90;;;;;;5093891;28;20043;-66
2021/07/31 07:25:16;;;;;;;6.75;6.05;;;16.60;99.90;;;;;;5095996;28;20032;-66
2021/07/31 07:27:42;;;;;;;6.43;5.65;;;16.60;99.90;;;;;;5096322;28;20028;-66
2021/07/31 07:30:08;;;;;;;6.43;5.85;;;16.60;99.90;;;;;;5096281;28;20055;-66
2021/07/31 07:32:34;;;;;;;7.00;6.28;;;16.60;99.90;;;;;;5095922;28;20465;-66
2021/07/31 07:35:00;;;;;;;7.35;6.55;;;16.60;99.90;;;;;;5096284;28;20024;-66
2021/07/31 07:37:26;;;;;;;8.40;7.30;;;16.60;99.90;;;;;;5096074;28;20031;-66
2021/07/31 07:39:51;;;;;;;7.82;6.90;;;16.60;99.90;;;;;;5086734;28;20600;-66
2021/07/31 07:42:17;;;;;;;8.63;7.88;;;16.60;99.90;;;;;;5077773;28;20060;-66
2021/07/31 07:44:42;;;;;;;10.27;7.78;;;16.60;99.90;;;;;;5057393;28;20111;-66
2021/07/31 07:47:09;;;;;;;10.52;8.32;;;16.50;99.90;;;;;;5056964;28;20509;-66
2021/07/31 07:49:35;;;;;;;12.50;8.20;;;16.50;99.90;;;;;;5056937;28;20123;-66
2021/07/31 07:52:01;;;;;;;8.43;7.63;;;16.50;99.90;;;;;;5080977;28;20485;-66
2021/07/31 07:54:29;;;;;;;9.25;7.50;;;16.60;99.90;;;;;;5095946;28;20485;-67
2021/07/31 07:56:55;;;;;;;9.57;8.25;;;16.60;99.90;;;;;;5095441;28;20013;-66
2021/07/31 07:59:20;;;;;;;8.40;7.55;;;16.60;99.90;;;;;;5077593;28;20047;-66
2021/07/31 08:01:46;;;;;;;8.27;7.53;;;16.60;99.90;;;;;;5095382;28;20057;-66
2021/07/31 08:04:11;;;;;;;9.52;8.63;;;16.60;99.90;;;;;;5063482;28;20020;-66
2021/07/31 08:06:37;;;;;;;8.75;7.97;;;16.70;99.90;;;;;;5095413;28;20428;-66
2021/07/31 08:09:03;;;;;;;9.18;7.47;;;16.80;99.90;;;;;;5095629;28;20028;-66
2021/07/31 08:11:29;;;;;;;8.20;6.80;;;16.90;99.90;;;;;;5095294;28;20039;-67
2021/07/31 08:13:54;;;;;;;8.85;8.00;;;17.00;99.90;;;;;;5069376;28;20103;-66
2021/07/31 08:16:20;;;;;;;8.80;7.90;;;17.10;99.90;;;;;;5094641;28;20036;-66
2021/07/31 08:18:45;;;;;;;8.35;7.03;;;17.10;99.60;;;;;;5088039;28;20363;-66
2021/07/31 08:21:11;;;;;;;8.10;7.25;;;17.20;99.60;;;;;;5092301;28;20039;-67
2021/07/31 08:23:36;;;;;;;9.15;6.68;;;17.20;99.40;;;;;;5095167;28;20028;-66
2021/07/31 08:26:04;;;;;;;7.88;6.78;;;17.20;99.20;;;;;;5076869;28;20016;-67
2021/07/31 08:28:30;;;;;;;7.72;5.97;;;17.10;99.10;;;;;;5094679;28;20510;-66
2021/07/31 08:30:55;;;;;;;7.60;5.18;;;17.20;98.70;;;;;;5094711;28;20103;-66
2021/07/31 08:33:21;;;;;;;8.43;6.25;;;17.30;98.60;;;;;;5094338;28;20470;-66
2021/07/31 08:35:47;;;;;;;10.75;5.47;;;17.40;98.40;;;;;;5094459;28;20020;-66
2021/07/31 08:38:12;;;;;;;8.55;5.40;;;17.60;98.40;;;;;;5094771;28;20107;-66
2021/07/31 08:40:38;;;;;;;6.50;5.03;;;17.70;98.30;;;;;;5080602;28;20030;-67
2021/07/31 08:43:05;;;;;;;6.57;4.72;;;17.90;98.00;;;;;;5076463;28;20028;-66
2021/07/31 08:45:31;;;;;;;7.78;4.68;;;17.90;97.40;;;;;;5065703;28;20505;-66
2021/07/31 08:47:58;;;;;;;7.25;4.32;;;18.00;97.00;;;;;;5070508;28;20043;-66
2021/07/31 08:50:24;;;;;;;7.10;4.38;;;18.00;96.60;;;;;;5068741;28;20158;-66
2021/07/31 08:52:52;;;;;;;5.60;4.43;;;18.00;96.30;;;;;;5094529;28;20457;-67
2021/07/31 08:55:17;;;;;;;5.25;3.92;;;18.10;96.20;;;;;;5094478;28;20032;-67
2021/07/31 08:57:44;;;;;;;7.97;4.53;;;18.20;96.20;;;;;;5094383;28;20134;-67
2021/07/31 09:00:10;;;;;;;7.03;4.80;;;18.30;95.50;;;;;;5093478;28;20028;-67
2021/07/31 09:02:47;;;;;;;7.18;4.50;;;18.40;95.40;;;;;;5093363;28;20536;-66
2021/07/31 09:05:35;;;;;;;5.13;3.70;;;18.40;95.30;;;;;;5075645;28;20020;-66
2021/07/31 09:08:02;;;;;;;4.85;3.47;;;18.50;95.10;;;;;;5070071;28;20039;-66
2021/07/31 09:10:29;;;;;;;6.25;3.60;;;18.60;95.00;;;;;;5059643;28;20040;-66
2021/07/31 09:13:01;;;;;;;4.72;3.22;;;18.60;95.20;;;;;;5081100;28;20024;-66
2021/07/31 09:15:52;;;;;;;3.80;3.15;;;18.70;94.70;;;;;;5077534;28;20036;-66
2021/07/31 09:18:42;;;;;;;5.25;2.88;;;18.80;94.90;;;;;;5073169;28;20028;-66
2021/07/31 09:21:15;;;;;;;4.45;2.47;;;19.00;94.50;;;;;;5082184;28;20099;-66
2021/07/31 09:23:52;;;;;;;5.90;2.60;;;19.00;94.40;;;;;;5093970;28;20020;-66
2021/07/31 09:26:38;;;;;;;5.55;2.30;;;19.00;94.00;;;;;;5094201;28;20115;-66
2021/07/31 09:29:11;;;;;;;4.40;2.55;;;19.00;93.70;;;;;;5075279;28;20028;-67
2021/07/31 09:31:39;;;;;;;5.85;2.80;;;18.90;93.80;;;;;;5075661;28;20020;-66
2021/07/31 09:34:06;;;;;;;4.32;2.28;;;18.70;93.90;;;;;;5093839;28;20024;-67
2021/07/31 09:36:44;;;;;;;4.38;3.30;;;18.60;94.50;;;;;;5093881;28;20503;-67
2021/07/31 09:39:10;;;;;;;4.03;2.50;;;18.40;95.10;;;;;;5075475;28;20024;-66
2021/07/31 09:41:52;;;;;;;3.30;2.95;;;18.20;95.50;;;;;;5093683;28;20024;-66
2021/07/31 09:44:18;;;;;;;4.13;2.78;;;18.20;96.20;;;;;;5093451;28;20032;-66
2021/07/31 09:46:46;;;;;;;4.13;2.53;;;18.00;96.60;;;;;;5093514;28;20031;-66
2021/07/31 09:49:14;;;;;;;4.43;3.03;;;17.90;96.80;;;;;;5075093;28;20414;-67
2021/07/31 09:51:42;;;;;;;4.35;3.10;;;17.70;97.10;;;;;;5093343;28;20027;-67
2021/07/31 09:54:10;;;;;;;3.92;2.85;;;17.70;97.40;;;;;;5075103;28;20542;-66
2021/07/31 09:56:43;;;;;;;4.30;2.80;;;17.70;97.50;;;;;;5093574;28;20024;-67
2021/07/31 09:59:11;;;;;;;4.60;2.88;;;17.80;97.60;;;;;;5093315;28;20055;-67
2021/07/31 10:01:40;;;;;;;4.10;2.95;;;17.70;97.70;;;;;;5091207;28;20032;-66
2021/07/31 10:04:06;;;;;;;3.83;2.97;;;17.70;98.00;;;;;;5072426;28;20028;-67
2021/07/31 10:06:33;;;;;;;5.43;2.95;;;17.70;98.10;;;;;;5079876;28;20024;-67
2021/07/31 10:09:00;;;;;;;3.20;2.90;;;17.70;98.20;;;;;;5088413;28;20035;-66
2021/07/31 10:11:27;;;;;;;3.72;3.20;;;17.60;98.30;;;;;;5091913;28;20095;-67
2021/07/31 10:13:55;;;;;;;3.25;2.80;;;17.70;98.40;;;;;;5092810;28;20396;-66
2021/07/31 10:16:21;;;;;;;3.78;3.30;;;17.80;98.40;;;;;;5074946;28;20047;-67
2021/07/31 10:22:15;;;;;;;4.07;2.88;;;18.00;98.30;;;;;;5068849;28;20036;-66
2021/07/31 10:24:53;;;;;;;4.65;2.80;;;18.30;98.30;;;;;;5071147;28;20024;-66
2021/07/31 10:27:23;;;;;;;3.10;2.80;;;18.40;97.90;;;;;;5072208;28;20056;-66
2021/07/31 10:29:53;;;;;;;2.97;2.33;;;18.50;97.70;;;;;;5071995;28;20506;-67
2021/07/31 10:32:22;;;;;;;3.28;1.92;;;18.60;97.20;;;;;;5072187;28;20523;-67
2021/07/31 10:35:43;;;;;;;3.08;2.08;;;18.70;96.70;;;;;;5072389;28;20017;-67
2021/07/31 10:38:10;;;;;;;3.60;2.10;;;18.90;96.50;;;;;;5070616;28;20106;-67
2021/07/31 10:40:42;;;;;;;2.70;2.40;;;18.80;96.10;;;;;;5076078;28;20028;-67
2021/07/31 10:43:59;;;;;;;2.38;1.63;;;18.80;96.10;;;;;;5092826;28;20020;-67
2021/07/31 10:46:25;;;;;;;2.42;2.00;;;18.90;96.00;;;;;;5070974;28;20525;-66
2021/07/31 10:48:50;;;;;;;3.97;3.03;;;18.90;96.10;;;;;;5056039;28;20040;-67
2021/07/31 10:51:40;;;;;;;2.80;2.30;;;18.90;95.80;;;;;;5070427;28;20028;-67
2021/07/31 10:54:06;;;;;;;2.63;1.73;;;19.00;95.40;;;;;;5056728;28;20021;-67
2021/07/31 10:56:50;;;;;;;3.45;2.30;;;18.90;95.50;;;;;;5072519;28;20025;-67
2021/07/31 10:59:17;;;;;;;4.68;2.30;;;19.10;95.60;;;;;;5073882;28;20036;-67
2021/07/31 11:01:43;;;;;;;4.22;1.98;;;19.10;95.00;;;;;;5098586;28;20027;-66
2021/07/31 11:04:08;;;;;;;3.13;2.63;;;19.10;95.00;;;;;;5099414;28;20028;-67
2021/07/31 11:07:10;;;;;;;4.90;3.15;;;19.00;95.10;;;;;;5094785;28;20032;-67
2021/07/31 11:09:35;;;;;;;3.65;2.80;;;18.90;95.20;;;;;;5056717;28;20033;-67
2021/07/31 11:12:39;;;;;;;3.65;2.30;;;19.10;95.50;;;;;;5076253;28;20390;-66
2021/07/31 11:15:09;;;;;;;5.10;2.15;;;19.40;95.10;;;;;;5099015;28;20020;-67
2021/07/31 11:17:37;;;;;;;4.30;2.67;;;19.60;95.00;;;;;;5099089;28;20477;-66
2021/07/31 11:20:35;;;;;;;4.25;2.40;;;19.80;94.50;;;;;;5085408;28;20032;-67
2021/07/31 11:23:07;;;;;;;3.22;2.47;;;19.90;94.30;;;;;;5084632;28;20021;-67
2021/07/31 11:25:34;;;;;;;4.20;2.58;;;19.90;93.70;;;;;;5086518;28;20019;-67
2021/07/31 11:28:08;;;;;;;2.42;2.22;;;19.90;93.60;;;;;;5084601;28;20020;-67
2021/07/31 11:30:44;;;;;;;4.20;2.20;;;20.10;93.60;;;;;;5091923;28;20047;-67
2021/07/31 11:33:27;;;;;;;3.22;1.90;;;20.30;93.50;;;;;;5089206;28;20035;-67
2021/07/31 11:35:57;;;;;;;3.10;2.03;;;20.50;93.00;;;;;;5076000;28;20377;-67
2021/07/31 11:38:36;;;;;;;1.95;1.63;;;20.50;92.90;;;;;;5086647;28;20025;-67
2021/07/31 11:41:01;;;;;;;3.67;2.13;;;20.30;92.80;;;;;;5084570;28;20025;-66
2021/07/31 11:46:37;;;;;;;4.00;2.38;;;20.00;93.70;;;;;;5086892;28;20028;-66
2021/07/31 11:49:06;;;;;;;4.53;1.95;;;19.80;94.30;;;;;;5070274;28;20406;-67
2021/07/31 11:51:32;;;;;;;3.50;1.97;;;19.60;94.60;;;;;;5085149;28;20107;-67
2021/07/31 11:54:05;;;;;;;4.75;1.90;;;19.70;94.80;;;;;;5080433;28;20162;-67
2021/07/31 11:56:31;;;;;;;3.05;2.08;;;20.00;95.00;;;;;;5078254;28;20013;-67
2021/07/31 11:59:22;;;;;;;3.67;2.55;;;20.20;95.20;;;;;;5077901;28;20102;-67
2021/07/31 12:01:48;;;;;;;4.20;2.72;;;20.30;95.30;;;;;;5085160;28;20459;-67
2021/07/31 12:04:13;;;;;;;5.25;3.03;;;20.20;95.30;;;;;;5089099;28;20521;-66
2021/07/31 12:06:40;;;;;;;4.70;3.10;;;20.10;95.20;;;;;;5087741;28;20028;-67
2021/07/31 12:09:18;;;;;;;3.22;2.47;;;20.00;95.30;;;;;;5081659;28;20532;-66
2021/07/31 12:11:44;;;;;;;3.35;2.30;;;20.20;95.20;;;;;;5082917;28;20145;-67
2021/07/31 12:14:32;;;;;;;3.45;2.83;;;20.30;95.10;;;;;;5090855;28;20095;-67
2021/07/31 12:17:42;;;;;;;2.53;2.05;;;20.50;94.90;;;;;;5085301;28;20017;-67
2021/07/31 12:20:08;;;;;;;4.00;2.53;;;20.70;94.80;;;;;;5074988;28;20024;-67
2021/07/31 12:22:35;;;;;;;4.60;2.65;;;20.80;94.80;;;;;;5087293;28;20039;-67
2021/07/31 12:25:20;;;;;;;3.83;2.88;;;20.80;94.60;;;;;;5075509;28;20026;-67
2021/07/31 12:28:06;;;;;;;3.83;3.20;;;20.90;94.40;;;;;;5073916;28;20021;-67
2021/07/31 12:30:42;;;;;;;3.88;2.60;;;20.90;93.60;;;;;;5063502;28;20082;-67
2021/07/31 12:33:07;;;;;;;3.83;2.78;;;21.00;93.40;;;;;;5074553;28;20022;-67
2021/07/31 12:35:43;;;;;;;5.35;3.35;;;21.00;93.50;;;;;;5072980;28;20099;-67
2021/07/31 12:38:58;;;;;;;;;;;;;;;;;;;;;
2021/07/31 12:44:39;;;;;;;3.20;2.47;;;20.60;92.80;;;;;;5082049;28;20039;-67
2021/07/31 12:47:06;;;;;;;3.30;2.40;;;20.40;92.80;;;;;;5079185;28;20017;-66
2021/07/31 12:49:33;;;;;;;4.47;2.58;;;20.30;93.00;;;;;;5085959;28;20028;-66
2021/07/31 12:51:59;;;;;;;2.53;1.77;;;20.20;93.30;;;;;;5082247;28;20028;-66
2021/07/31 12:54:55;;;;;;;3.15;2.00;;;20.10;93.60;;;;;;5089374;28;20023;-66
2021/07/31 12:57:20;;;;;;;2.80;1.75;;;20.10;93.80;;;;;;5060947;28;20030;-67
2021/07/31 13:00:02;;;;;;;4.03;2.45;;;20.00;94.10;;;;;;5060252;28;20024;-67
2021/07/31 13:02:28;;;;;;;5.25;2.35;;;20.00;94.30;;;;;;5083340;28;20019;-67
2021/07/31 13:04:54;;;;;;;3.58;2.38;;;20.00;94.40;;;;;;5049106;28;20108;-66